Time;durP1;ratioP1;P1;durP2;ratioP2;P2;SDS_P1;SDS_P2;PMS_P1;PMS_P2;Temp;Humidity;BMP_temperature;BMP_pressure;BME280_temperature;BME280_humidity;BME280_pressure;Samples;Min_cycle;Max_cycle;Signal;HPM_P1;HPM_P2
2022/03/07 00:00:11;;;;;;;18.43;12.20;;;0.80;1.00;;;;;;4999245;28;20560;-78
2022/03/07 00:02:38;;;;;;;17.07;12.17;;;0.80;1.00;;;;;;5018394;28;20672;-78
2022/03/07 00:05:05;;;;;;;14.40;11.67;;;0.80;1.00;;;;;;4984857;28;20199;-77
2022/03/07 00:07:33;;;;;;;17.50;10.83;;;0.80;1.00;;;;;;5002827;28;20263;-77
2022/03/07 00:10:00;;;;;;;14.93;11.00;;;0.80;1.00;;;;;;5018439;28;20206;-76
2022/03/07 00:12:27;;;;;;;14.17;10.87;;;0.90;1.00;;;;;;5002326;28;20226;-75
2022/03/07 00:14:54;;;;;;;16.17;11.30;;;1.00;1.00;;;;;;5000889;28;20212;-75
2022/03/07 00:17:21;;;;;;;15.60;11.27;;;1.00;1.00;;;;;;5000337;28;20220;-75
2022/03/07 00:19:48;;;;;;;17.50;11.37;;;1.00;1.00;;;;;;5003509;28;20190;-76
2022/03/07 00:22:15;;;;;;;13.53;10.50;;;1.10;1.00;;;;;;4999660;28;20201;-75
2022/03/07 00:24:42;;;;;;;16.53;11.57;;;1.10;1.00;;;;;;5004456;28;20227;-75
2022/03/07 00:27:09;;;;;;;14.10;10.40;;;1.20;1.00;;;;;;5005793;28;20243;-76
2022/03/07 00:29:36;;;;;;;14.73;11.10;;;1.20;1.00;;;;;;5008900;28;20200;-76
2022/03/07 00:32:04;;;;;;;15.60;10.83;;;1.20;1.00;;;;;;5006586;28;20201;-76
2022/03/07 00:34:31;;;;;;;14.57;11.77;;;1.20;1.00;;;;;;4989883;28;20221;-77
2022/03/07 00:37:03;;;;;;;15.47;11.20;;;1.20;1.00;;;;;;5009006;28;20217;-76
2022/03/07 00:39:30;;;;;;;14.47;12.20;;;1.30;1.00;;;;;;4990978;28;20272;-76
2022/03/07 00:41:57;;;;;;;13.33;11.00;;;1.30;1.00;;;;;;5006192;28;20216;-76
2022/03/07 00:44:24;;;;;;;14.80;11.37;;;1.20;1.00;;;;;;5021460;28;20204;-76
2022/03/07 00:46:51;;;;;;;16.03;11.63;;;1.20;1.00;;;;;;5005406;28;20206;-76
2022/03/07 00:49:19;;;;;;;15.33;11.30;;;1.20;1.00;;;;;;5004741;28;20316;-76
2022/03/07 00:51:46;;;;;;;11.70;9.80;;;1.20;1.00;;;;;;5005640;28;20267;-76
2022/03/07 00:54:14;;;;;;;13.77;11.00;;;1.20;1.00;;;;;;5019736;28;20209;-76
2022/03/07 00:56:41;;;;;;;14.57;10.93;;;1.20;1.00;;;;;;4989383;28;20228;-76
2022/03/07 00:59:08;;;;;;;13.60;10.77;;;1.20;1.00;;;;;;4990647;28;20311;-76
2022/03/07 01:01:36;;;;;;;14.07;10.23;;;1.20;1.00;;;;;;4981965;28;20236;-76
2022/03/07 01:04:06;;;;;;;14.67;11.20;;;1.30;1.00;;;;;;5019898;28;20201;-76
2022/03/07 01:06:33;;;;;;;13.23;10.67;;;1.30;1.00;;;;;;4989654;28;20313;-76
2022/03/07 01:09:02;;;;;;;18.53;12.07;;;1.30;1.00;;;;;;4989931;28;20970;-76
2022/03/07 01:11:30;;;;;;;12.57;10.40;;;1.40;1.00;;;;;;5017828;28;20264;-76
2022/03/07 01:13:57;;;;;;;13.40;10.67;;;1.30;1.00;;;;;;4990702;28;20604;-76
2022/03/07 01:16:24;;;;;;;12.90;10.20;;;1.30;1.00;;;;;;4989671;28;20202;-76
2022/03/07 01:18:51;;;;;;;14.07;10.30;;;1.30;1.00;;;;;;4989120;28;20241;-76
2022/03/07 01:21:18;;;;;;;16.90;11.50;;;1.40;1.00;;;;;;4994652;28;20642;-76
2022/03/07 01:23:45;;;;;;;16.73;11.70;;;1.40;1.00;;;;;;5004776;28;21228;-77
2022/03/07 01:26:12;;;;;;;14.70;10.90;;;1.30;1.00;;;;;;5005283;28;20216;-77
2022/03/07 01:28:39;;;;;;;14.53;10.83;;;1.30;1.00;;;;;;5004959;28;20598;-77
2022/03/07 01:31:08;;;;;;;15.13;10.70;;;1.30;1.00;;;;;;4993190;28;20656;-77
2022/03/07 01:33:37;;;;;;;12.40;10.23;;;1.20;1.00;;;;;;5021146;28;20193;-77
2022/03/07 01:36:05;;;;;;;14.07;10.80;;;1.20;1.00;;;;;;4990757;28;20205;-77
2022/03/07 01:38:32;;;;;;;15.43;10.63;;;1.20;1.00;;;;;;4995344;28;20221;-77
2022/03/07 01:41:00;;;;;;;14.27;10.70;;;1.20;1.00;;;;;;5007590;28;20194;-77
2022/03/07 01:43:30;;;;;;;14.43;10.00;;;1.20;1.00;;;;;;5003306;28;20248;-77
2022/03/07 01:45:57;;;;;;;13.67;10.10;;;1.10;1.00;;;;;;5005004;28;20194;-79
2022/03/07 01:48:26;;;;;;;16.57;10.53;;;1.10;1.00;;;;;;5005216;28;20231;-76
2022/03/07 01:50:54;;;;;;;13.77;9.23;;;1.10;1.00;;;;;;5002091;28;20276;-76
2022/03/07 01:53:21;;;;;;;13.50;9.77;;;1.10;1.00;;;;;;5007165;28;20597;-76
2022/03/07 01:55:50;;;;;;;15.20;10.30;;;1.10;1.00;;;;;;5004551;28;20201;-76
2022/03/07 01:58:17;;;;;;;11.83;9.57;;;1.20;1.00;;;;;;4983863;28;20229;-76
2022/03/07 02:00:44;;;;;;;12.63;10.30;;;1.20;1.00;;;;;;4986877;28;20194;-76
2022/03/07 02:03:11;;;;;;;13.73;10.43;;;1.20;1.00;;;;;;5003492;28;20233;-76
2022/03/07 02:05:46;;;;;;;17.60;10.13;;;1.20;1.00;;;;;;5016812;28;20201;-76
2022/03/07 02:08:18;;;;;;;16.30;10.07;;;1.20;1.00;;;;;;4992993;28;20311;-76
2022/03/07 02:10:53;;;;;;;15.13;10.70;;;1.20;1.00;;;;;;5003228;28;20240;-76
2022/03/07 02:13:21;;;;;;;15.37;10.27;;;1.20;1.00;;;;;;5020331;28;20375;-76
2022/03/07 02:15:56;;;;;;;15.07;10.23;;;1.20;1.00;;;;;;4996167;28;20273;-76
2022/03/07 02:18:30;;;;;;;12.80;9.97;;;1.30;1.00;;;;;;5020662;28;20205;-76
2022/03/07 02:21:16;;;;;;;15.07;11.33;;;1.30;1.00;;;;;;4989912;28;20198;-76
2022/03/07 02:24:10;;;;;;;14.47;11.23;;;1.30;1.00;;;;;;5021473;28;20196;-77
2022/03/07 02:26:43;;;;;;;17.83;12.70;;;1.30;1.00;;;;;;5002082;28;20186;-77
2022/03/07 02:29:11;;;;;;;19.97;13.30;;;1.20;1.00;;;;;;5007860;28;20193;-76
2022/03/07 02:31:41;;;;;;;15.87;11.90;;;1.20;1.00;;;;;;5018880;28;20720;-77
2022/03/07 02:34:13;;;;;;;15.43;11.63;;;1.20;1.00;;;;;;4987318;28;20279;-77
2022/03/07 02:36:40;;;;;;;16.93;12.37;;;1.20;1.00;;;;;;5008349;28;20201;-77
2022/03/07 02:39:09;;;;;;;16.80;10.87;;;1.20;1.00;;;;;;5002725;28;20222;-77
2022/03/07 02:41:37;;;;;;;19.43;12.77;;;1.20;1.00;;;;;;5008176;28;20205;-77
2022/03/07 02:44:06;;;;;;;15.93;11.73;;;1.30;1.00;;;;;;4991912;28;20304;-76
2022/03/07 02:46:33;;;;;;;15.90;11.43;;;1.30;1.00;;;;;;5002041;28;20286;-77
2022/03/07 02:49:01;;;;;;;17.37;12.40;;;1.30;1.00;;;;;;4993222;28;20229;-77
2022/03/07 02:51:28;;;;;;;17.73;12.30;;;1.40;1.00;;;;;;4986323;28;20203;-76
2022/03/07 02:53:55;;;;;;;17.80;12.47;;;1.30;1.00;;;;;;4989915;28;20296;-76
2022/03/07 02:56:22;;;;;;;19.73;13.03;;;1.20;1.00;;;;;;5001068;28;20209;-77
2022/03/07 02:58:50;;;;;;;14.37;11.60;;;1.10;1.00;;;;;;5005357;28;20223;-76
2022/03/07 03:01:17;;;;;;;16.97;12.73;;;1.10;1.00;;;;;;5003588;28;20226;-76
2022/03/07 03:03:45;;;;;;;15.97;12.47;;;1.10;1.00;;;;;;5003095;28;20185;-76
2022/03/07 03:06:14;;;;;;;17.63;12.30;;;1.10;1.00;;;;;;5009120;28;20197;-76
2022/03/07 03:08:41;;;;;;;16.13;12.13;;;1.10;1.00;;;;;;5006463;28;20203;-77
2022/03/07 03:11:08;;;;;;;15.87;11.93;;;1.10;1.00;;;;;;5017706;28;20800;-76
2022/03/07 03:13:35;;;;;;;15.27;12.03;;;1.10;1.00;;;;;;4985882;28;20201;-76
2022/03/07 03:16:03;;;;;;;18.30;12.53;;;1.20;1.00;;;;;;5017477;28;20680;-76
2022/03/07 03:18:30;;;;;;;16.77;12.70;;;1.20;1.00;;;;;;5014927;28;20219;-76
2022/03/07 03:20:57;;;;;;;16.13;11.97;;;1.30;1.00;;;;;;4989918;28;20204;-76
2022/03/07 03:23:25;;;;;;;19.10;12.87;;;1.30;1.00;;;;;;4999945;28;20201;-76
2022/03/07 03:25:54;;;;;;;16.93;12.30;;;1.30;1.00;;;;;;5008359;28;20669;-76
2022/03/07 03:28:23;;;;;;;16.60;12.10;;;1.20;1.00;;;;;;4999745;28;20199;-76
2022/03/07 03:30:52;;;;;;;16.03;12.30;;;1.20;1.00;;;;;;5002720;28;20272;-76
2022/03/07 03:33:19;;;;;;;14.97;11.83;;;1.20;1.00;;;;;;5004520;28;20205;-76
2022/03/07 03:35:46;;;;;;;18.77;11.83;;;1.30;1.00;;;;;;4991682;28;20207;-76
2022/03/07 03:38:13;;;;;;;18.87;13.57;;;1.20;1.00;;;;;;5006409;28;20205;-76
2022/03/07 03:40:40;;;;;;;16.43;11.30;;;1.20;1.00;;;;;;5002357;28;20225;-77
2022/03/07 03:43:09;;;;;;;16.67;11.30;;;1.20;1.00;;;;;;5019536;28;20620;-77
2022/03/07 03:45:36;;;;;;;16.90;11.33;;;1.20;1.00;;;;;;5004118;28;20212;-77
2022/03/07 03:48:04;;;;;;;16.60;10.80;;;1.20;1.00;;;;;;5003971;28;20266;-77
2022/03/07 03:50:32;;;;;;;14.60;10.93;;;1.20;1.00;;;;;;5006390;28;20206;-77
2022/03/07 03:53:02;;;;;;;14.37;10.70;;;1.20;1.00;;;;;;4985640;28;20197;-77
2022/03/07 03:55:29;;;;;;;13.80;11.13;;;1.20;1.00;;;;;;5003183;28;20876;-77
2022/03/07 03:57:56;;;;;;;13.90;10.60;;;1.30;1.00;;;;;;5007156;28;20248;-77
2022/03/07 04:00:24;;;;;;;13.43;10.33;;;1.30;1.00;;;;;;5020638;28;20217;-77
2022/03/07 04:02:51;;;;;;;13.47;10.33;;;1.30;1.00;;;;;;5006272;28;20194;-77
2022/03/07 04:05:21;;;;;;;14.37;11.00;;;1.30;1.00;;;;;;5000253;28;20197;-77
2022/03/07 04:07:48;;;;;;;15.17;10.40;;;1.20;1.00;;;;;;4999633;28;20594;-77
2022/03/07 04:10:17;;;;;;;14.33;10.60;;;1.20;1.00;;;;;;5011040;28;20843;-77
2022/03/07 04:12:45;;;;;;;13.97;10.70;;;1.20;1.00;;;;;;4999920;28;20236;-77
2022/03/07 04:15:12;;;;;;;12.23;9.97;;;1.20;1.00;;;;;;4985987;28;22063;-77
2022/03/07 04:17:44;;;;;;;15.57;9.97;;;1.20;1.00;;;;;;4985091;28;20259;-77
2022/03/07 04:20:13;;;;;;;12.13;10.13;;;1.20;1.00;;;;;;5022667;28;20211;-77
2022/03/07 04:22:43;;;;;;;17.30;9.93;;;1.30;1.00;;;;;;5020033;28;20194;-77
2022/03/07 04:25:10;;;;;;;13.30;10.13;;;1.30;1.00;;;;;;5022091;28;20197;-77
2022/03/07 04:27:37;;;;;;;14.00;10.00;;;1.20;1.00;;;;;;5003909;28;20263;-77
2022/03/07 04:30:06;;;;;;;13.07;10.50;;;1.20;1.00;;;;;;4989170;28;20255;-77
2022/03/07 04:32:36;;;;;;;15.73;10.27;;;1.20;1.00;;;;;;5003457;28;20227;-78
2022/03/07 04:35:05;;;;;;;12.97;10.17;;;1.20;1.00;;;;;;5007028;28;20211;-77
2022/03/07 04:37:34;;;;;;;14.57;9.63;;;1.20;1.00;;;;;;5011375;28;20277;-77
2022/03/07 04:40:03;;;;;;;13.30;10.70;;;1.20;1.00;;;;;;5011812;28;20228;-78
2022/03/07 04:42:30;;;;;;;13.87;10.20;;;1.20;1.00;;;;;;5008466;28;21178;-77
2022/03/07 04:44:59;;;;;;;16.17;10.77;;;1.20;1.00;;;;;;5007560;28;20201;-78
2022/03/07 04:47:26;;;;;;;14.90;10.47;;;1.20;1.00;;;;;;5006676;28;20202;-78
2022/03/07 04:49:56;;;;;;;14.53;11.27;;;1.20;1.00;;;;;;5007357;28;20832;-77
2022/03/07 04:52:23;;;;;;;13.37;11.07;;;1.30;1.00;;;;;;5006255;28;20259;-77
2022/03/07 04:54:50;;;;;;;14.70;11.30;;;1.30;1.00;;;;;;5022383;28;20228;-77
2022/03/07 04:57:17;;;;;;;14.77;10.50;;;1.30;1.00;;;;;;5018481;28;20236;-77
2022/03/07 04:59:46;;;;;;;13.43;10.33;;;1.20;1.00;;;;;;5018838;28;20216;-78
2022/03/07 05:02:13;;;;;;;13.47;10.10;;;1.10;1.00;;;;;;5006570;28;20751;-78
2022/03/07 05:04:41;;;;;;;13.87;10.70;;;1.10;1.00;;;;;;4993312;28;20657;-77
2022/03/07 05:07:08;;;;;;;13.67;9.63;;;1.10;1.00;;;;;;5021771;28;20215;-77
2022/03/07 05:09:35;;;;;;;12.47;9.10;;;1.10;1.00;;;;;;5009356;28;20229;-77
2022/03/07 05:12:02;;;;;;;13.73;9.90;;;1.10;1.00;;;;;;5006599;28;20228;-77
2022/03/07 05:14:29;;;;;;;12.77;9.83;;;1.20;1.00;;;;;;5007112;28;20192;-77
2022/03/07 05:16:57;;;;;;;11.93;9.10;;;1.20;1.00;;;;;;5006490;28;20675;-77
2022/03/07 05:19:24;;;;;;;19.43;10.60;;;1.30;1.00;;;;;;5007665;28;20208;-78
2022/03/07 05:21:51;;;;;;;14.40;10.20;;;1.30;1.00;;;;;;5019560;28;20293;-77
2022/03/07 05:24:18;;;;;;;18.57;11.37;;;1.30;1.00;;;;;;5007765;28;20660;-78
2022/03/07 05:26:47;;;;;;;18.30;11.83;;;1.30;1.00;;;;;;4980434;28;20196;-77
2022/03/07 05:29:15;;;;;;;14.80;10.90;;;1.30;1.00;;;;;;5009859;28;20197;-77
2022/03/07 05:31:44;;;;;;;12.87;9.60;;;1.30;1.00;;;;;;4987520;28;20288;-78
2022/03/07 05:34:11;;;;;;;14.07;9.67;;;1.30;1.00;;;;;;5007213;28;20201;-78
2022/03/07 05:36:38;;;;;;;13.63;9.17;;;1.20;1.00;;;;;;5008928;28;20193;-78
2022/03/07 05:39:05;;;;;;;13.60;9.87;;;1.30;1.00;;;;;;5006197;28;20220;-78
2022/03/07 05:41:32;;;;;;;9.63;8.63;;;1.30;1.00;;;;;;4987136;28;20264;-78
2022/03/07 05:43:59;;;;;;;18.00;10.27;;;1.30;1.00;;;;;;5008874;28;20747;-77
2022/03/07 05:46:27;;;;;;;12.23;8.80;;;1.30;1.00;;;;;;5008713;28;20201;-77
2022/03/07 05:48:54;;;;;;;13.47;8.77;;;1.30;1.00;;;;;;5004809;28;20256;-77
2022/03/07 05:51:24;;;;;;;13.37;9.57;;;1.40;1.00;;;;;;5008704;28;20212;-77
2022/03/07 05:53:52;;;;;;;15.63;10.00;;;1.40;1.00;;;;;;5008539;28;20699;-77
2022/03/07 05:56:22;;;;;;;13.60;9.13;;;2.70;1.00;;;;;;5023912;28;20201;-77
2022/03/07 05:58:54;;;;;;;15.27;10.10;;;1.40;1.00;;;;;;5009660;28;20197;-77
2022/03/07 06:01:22;;;;;;;14.33;9.30;;;1.40;1.00;;;;;;4991446;28;20193;-77
2022/03/07 06:03:51;;;;;;;13.03;9.57;;;1.40;1.00;;;;;;5022801;28;20190;-80
2022/03/07 06:06:23;;;;;;;14.17;10.03;;;1.40;1.00;;;;;;5008204;28;20211;-79
2022/03/07 06:08:50;;;;;;;16.03;10.73;;;1.40;1.00;;;;;;5019745;28;20263;-78
2022/03/07 06:11:17;;;;;;;19.43;11.10;;;1.40;1.00;;;;;;5006428;28;20611;-78
2022/03/07 06:13:49;;;;;;;14.47;11.70;;;1.30;1.00;;;;;;5007200;28;20213;-77
2022/03/07 06:16:16;;;;;;;15.10;11.80;;;1.30;1.00;;;;;;5006967;28;20484;-77
2022/03/07 06:18:44;;;;;;;15.40;11.87;;;1.30;1.00;;;;;;4997360;28;20204;-78
2022/03/07 06:21:11;;;;;;;20.17;13.03;;;1.30;1.00;;;;;;4996291;28;20217;-78
2022/03/07 06:23:38;;;;;;;21.40;13.50;;;1.40;1.00;;;;;;5020696;28;20193;-78
2022/03/07 06:26:11;;;;;;;24.47;15.27;;;1.40;1.00;;;;;;5004791;28;20208;-79
2022/03/07 06:28:38;;;;;;;29.63;14.77;;;1.50;1.00;;;;;;5003000;28;20564;-77
2022/03/07 06:31:05;;;;;;;23.23;14.70;;;1.50;1.00;;;;;;5008100;28;20216;-78
2022/03/07 06:33:34;;;;;;;20.33;13.40;;;1.50;1.00;;;;;;5004096;28;20207;-79
2022/03/07 06:36:05;;;;;;;23.57;14.67;;;1.60;1.00;;;;;;5003411;28;20189;-78
2022/03/07 06:38:33;;;;;;;28.23;16.57;;;1.70;1.00;;;;;;5008245;28;20201;-77
2022/03/07 06:41:00;;;;;;;17.50;12.50;;;1.80;1.00;;;;;;5004915;28;20271;-77
2022/03/07 06:43:27;;;;;;;18.83;11.70;;;1.80;1.00;;;;;;5004469;28;20630;-77
2022/03/07 06:45:55;;;;;;;21.47;11.37;;;1.70;1.00;;;;;;4995380;28;20205;-76
2022/03/07 06:48:22;;;;;;;18.30;12.37;;;1.80;1.00;;;;;;5003859;28;20217;-76
2022/03/07 06:50:49;;;;;;;15.80;12.83;;;1.90;1.00;;;;;;5002158;28;20208;-76
2022/03/07 06:53:16;;;;;;;22.67;18.00;;;2.00;1.00;;;;;;5020544;28;20197;-77
2022/03/07 06:55:48;;;;;;;14.13;11.77;;;2.10;1.00;;;;;;5008503;28;20208;-77
2022/03/07 06:58:15;;;;;;;17.37;12.80;;;2.30;1.00;;;;;;5005073;28;20205;-77
2022/03/07 07:00:42;;;;;;;20.87;12.87;;;2.40;1.00;;;;;;5004401;28;20221;-77
2022/03/07 07:03:09;;;;;;;16.87;12.27;;;2.60;1.00;;;;;;5006410;28;20189;-77
2022/03/07 07:05:36;;;;;;;17.50;11.23;;;2.70;1.00;;;;;;5005615;28;20208;-78
2022/03/07 07:08:04;;;;;;;11.23;9.03;;;3.00;1.00;;;;;;5009520;28;20235;-78
2022/03/07 07:10:31;;;;;;;14.07;9.97;;;3.40;1.00;;;;;;4991206;28;20232;-78
2022/03/07 07:12:58;;;;;;;12.73;9.17;;;3.60;1.00;;;;;;5005713;28;20225;-78
2022/03/07 07:15:25;;;;;;;12.33;9.73;;;4.00;1.00;;;;;;5004710;28;23509;-76
2022/03/07 07:17:52;;;;;;;14.00;9.30;;;4.50;1.00;;;;;;5016692;28;20615;-77
2022/03/07 07:20:19;;;;;;;12.77;8.70;;;6.00;1.00;;;;;;4984881;28;20739;-80
2022/03/07 07:22:46;;;;;;;13.40;8.37;;;7.00;1.00;;;;;;5002389;28;20205;-80
2022/03/07 07:25:14;;;;;;;11.70;8.20;;;8.60;1.00;;;;;;5001583;28;20201;-87
2022/03/07 07:27:44;;;;;;;9.53;7.23;;;10.60;1.00;;;;;;5005155;28;20291;-80
2022/03/07 07:30:11;;;;;;;11.03;7.57;;;13.00;1.00;;;;;;5002391;28;20335;-81
2022/03/07 07:32:39;;;;;;;8.80;7.30;;;13.10;1.00;;;;;;4986184;28;20197;-81
2022/03/07 07:35:09;;;;;;;13.77;8.10;;;14.80;1.00;;;;;;4999966;28;20193;-80
2022/03/07 07:37:38;;;;;;;9.45;7.70;;;16.00;99.90;;;;;;4987530;28;20211;-78
2022/03/07 07:40:07;;;;;;;13.38;7.03;;;16.80;99.90;;;;;;5000848;28;20209;-78
2022/03/07 07:42:35;;;;;;;9.45;7.18;;;14.90;99.90;;;;;;4989931;28;20212;-78
2022/03/07 07:45:07;;;;;;;12.63;6.70;;;13.50;99.90;;;;;;4986913;28;20250;-78
2022/03/07 07:47:34;;;;;;;8.20;6.65;;;10.80;99.90;;;;;;5002495;28;20713;-79
2022/03/07 07:50:01;;;;;;;10.52;6.78;;;9.00;99.90;;;;;;4990197;28;20739;-79
2022/03/07 07:52:28;;;;;;;7.70;5.28;;;7.80;99.90;;;;;;4989598;28;20208;-80
2022/03/07 07:54:57;;;;;;;8.18;5.60;;;6.80;99.90;;;;;;5002456;28;20262;-80
2022/03/07 07:57:24;;;;;;;6.90;5.33;;;6.40;99.90;;;;;;5003554;28;20228;-80
2022/03/07 07:59:51;;;;;;;7.07;5.60;;;5.90;99.90;;;;;;4991525;28;20712;-83
2022/03/07 08:02:39;;;;;;;5.77;5.00;;;5.30;1.00;;;;;;5001856;28;20272;-80
2022/03/07 08:05:07;;;;;;;8.10;5.67;;;5.10;1.00;;;;;;5000849;28;20252;-78
2022/03/07 08:07:34;;;;;;;8.73;5.73;;;4.80;1.00;;;;;;4985828;28;20205;-77
2022/03/07 08:10:04;;;;;;;5.97;5.37;;;4.70;1.00;;;;;;4999739;28;20224;-76
2022/03/07 08:12:32;;;;;;;7.20;5.70;;;4.60;1.00;;;;;;5005140;28;20229;-76
2022/03/07 08:14:59;;;;;;;8.00;6.37;;;4.70;1.00;;;;;;5021123;28;20201;-77
2022/03/07 08:17:26;;;;;;;10.77;6.30;;;4.70;1.00;;;;;;5002633;28;20212;-78
2022/03/07 08:19:53;;;;;;;8.77;6.90;;;4.60;1.00;;;;;;5015404;28;20213;-78
2022/03/07 08:22:20;;;;;;;7.57;6.10;;;4.70;1.00;;;;;;4988122;28;20256;-77
2022/03/07 08:24:50;;;;;;;9.03;6.63;;;4.80;1.00;;;;;;5003129;28;20196;-77
2022/03/07 08:27:17;;;;;;;7.87;5.30;;;4.70;1.00;;;;;;4984683;28;20466;-77
2022/03/07 08:29:44;;;;;;;9.17;5.63;;;4.60;1.00;;;;;;5004059;28;20197;-77
2022/03/07 08:32:10;;;;;;;7.83;5.57;;;4.80;1.00;;;;;;5008866;28;20224;-77
2022/03/07 08:34:40;;;;;;;9.50;5.50;;;4.60;1.00;;;;;;5004146;28;20201;-76
2022/03/07 08:37:07;;;;;;;11.93;5.33;;;4.70;1.00;;;;;;5003806;28;20200;-76
2022/03/07 08:39:34;;;;;;;6.73;5.43;;;4.80;1.00;;;;;;5002347;28;20220;-76
2022/03/07 08:42:01;;;;;;;9.30;5.63;;;4.90;1.00;;;;;;5002615;28;20220;-76
2022/03/07 08:44:29;;;;;;;7.23;5.03;;;4.80;1.00;;;;;;5013856;28;20288;-77
2022/03/07 08:46:56;;;;;;;6.33;4.57;;;4.80;1.00;;;;;;4991961;28;20229;-76
2022/03/07 08:49:23;;;;;;;4.30;3.87;;;4.80;1.00;;;;;;5021451;28;20315;-76
2022/03/07 08:51:52;;;;;;;5.67;3.90;;;4.60;1.00;;;;;;5005606;28;20206;-77
2022/03/07 08:54:19;;;;;;;4.10;3.70;;;4.80;1.00;;;;;;5008725;28;20221;-76
2022/03/07 08:56:47;;;;;;;4.63;4.10;;;4.70;1.00;;;;;;5003922;28;20205;-77
2022/03/07 08:59:16;;;;;;;7.77;4.57;;;4.70;1.00;;;;;;4991632;28;20204;-77
2022/03/07 09:01:43;;;;;;;4.00;3.40;;;4.60;1.00;;;;;;5008802;28;20694;-77
2022/03/07 09:04:12;;;;;;;8.40;3.53;;;4.80;1.00;;;;;;5008235;28;20221;-77
2022/03/07 09:06:39;;;;;;;5.63;3.70;;;4.90;1.00;;;;;;5023276;28;20552;-77
2022/03/07 09:09:06;;;;;;;5.20;3.33;;;6.90;1.00;;;;;;5009066;28;20197;-77
2022/03/07 09:11:53;;;;;;;4.90;3.60;;;13.30;1.00;;;;;;5018480;28;20252;-80
2022/03/07 09:14:21;;;;;;;7.67;3.80;;;16.70;99.90;;;;;;4999398;28;20263;-80
2022/03/07 09:16:50;;;;;;;3.37;3.07;;;18.80;99.90;;;;;;5023880;28;20213;-80
2022/03/07 09:19:17;;;;;;;4.68;3.00;;;19.20;99.90;;;;;;4987155;28;20219;-80
2022/03/07 09:21:45;;;;;;;3.63;2.97;;;20.30;99.90;;;;;;4997267;28;20225;-80
2022/03/07 09:24:12;;;;;;;5.47;2.95;;;19.30;99.90;;;;;;5002401;28;20265;-79
2022/03/07 09:26:40;;;;;;;3.08;2.75;;;21.20;99.90;;;;;;5002591;28;20248;-80
2022/03/07 09:29:07;;;;;;;3.67;2.65;;;20.40;99.90;;;;;;4994121;28;20316;-79
2022/03/07 09:31:34;;;;;;;4.55;2.90;;;20.50;99.90;;;;;;5001086;28;20212;-79
2022/03/07 09:34:07;;;;;;;3.72;3.38;;;19.70;99.90;;;;;;4989012;28;20787;-80
2022/03/07 09:36:36;;;;;;;4.05;3.13;;;17.80;99.90;;;;;;5008978;28;20215;-80
2022/03/07 09:39:05;;;;;;;5.45;3.00;;;19.40;99.90;;;;;;4989367;28;20669;-78
2022/03/07 09:41:32;;;;;;;2.78;2.50;;;17.40;99.90;;;;;;5018946;28;20295;-78
2022/03/07 09:44:01;;;;;;;3.63;3.00;;;16.70;99.90;;;;;;5009990;28;20315;-80
2022/03/07 09:46:28;;;;;;;3.17;2.80;;;16.30;99.90;;;;;;5004227;28;20699;-79
2022/03/07 09:48:55;;;;;;;3.30;2.70;;;17.30;99.90;;;;;;4995493;28;20297;-79
2022/03/07 09:51:22;;;;;;;3.33;2.70;;;17.70;99.90;;;;;;5006187;28;20235;-79
2022/03/07 09:53:50;;;;;;;2.90;2.42;;;17.00;99.90;;;;;;4994158;28;20676;-78
2022/03/07 09:56:17;;;;;;;2.97;2.40;;;18.40;99.90;;;;;;5004557;28;20201;-81
2022/03/07 09:58:45;;;;;;;3.03;2.53;;;19.90;99.90;;;;;;5010163;28;20204;-80
2022/03/07 10:01:19;;;;;;;4.15;3.05;;;21.10;99.90;;;;;;4991350;28;20232;-80
2022/03/07 10:04:03;;;;;;;4.00;2.90;;;20.30;99.90;;;;;;5002446;28;20200;-81
2022/03/07 10:06:31;;;;;;;3.67;2.72;;;19.90;99.90;;;;;;5002796;28;20388;-80
2022/03/07 10:09:00;;;;;;;3.33;2.90;;;19.50;99.90;;;;;;5018700;28;20198;-80
2022/03/07 10:11:30;;;;;;;4.85;2.92;;;21.70;99.90;;;;;;5004719;28;20229;-78
2022/03/07 10:14:03;;;;;;;4.45;2.90;;;19.90;99.90;;;;;;5004492;28;20211;-79
2022/03/07 10:16:42;;;;;;;3.33;3.03;;;20.20;99.90;;;;;;5005042;28;20204;-79
2022/03/07 10:19:14;;;;;;;3.33;2.67;;;17.50;99.90;;;;;;4988951;28;20208;-80
2022/03/07 10:21:50;;;;;;;3.30;2.80;;;17.00;99.90;;;;;;5003545;28;20211;-79
2022/03/07 10:24:19;;;;;;;4.30;3.20;;;17.40;99.90;;;;;;5001257;28;20201;-79
2022/03/07 10:26:49;;;;;;;4.30;3.10;;;18.70;99.90;;;;;;5005074;28;20208;-82
2022/03/07 10:29:18;;;;;;;3.45;2.85;;;18.60;99.90;;;;;;5004953;28;20197;-80
2022/03/07 10:31:56;;;;;;;3.40;3.10;;;19.50;99.90;;;;;;4988035;28;20211;-79
2022/03/07 10:34:26;;;;;;;5.30;3.55;;;16.90;99.90;;;;;;5017423;28;20521;-79
2022/03/07 10:36:53;;;;;;;5.47;3.22;;;18.40;99.90;;;;;;5020222;28;20236;-79
2022/03/07 10:39:32;;;;;;;3.22;2.90;;;19.80;99.90;;;;;;4999899;28;20391;-78
2022/03/07 10:42:02;;;;;;;3.88;3.10;;;20.60;99.90;;;;;;5000472;28;20224;-80
2022/03/07 10:44:31;;;;;;;3.92;2.92;;;20.20;99.90;;;;;;4984930;28;20599;-80
2022/03/07 10:47:09;;;;;;;6.30;3.63;;;20.40;99.90;;;;;;5006139;28;20201;-80
2022/03/07 10:49:56;;;;;;;7.65;3.60;;;19.70;99.90;;;;;;4986827;28;20228;-79
2022/03/07 10:52:36;;;;;;;3.67;3.17;;;19.30;99.90;;;;;;4999951;28;20715;-79
2022/03/07 10:55:09;;;;;;;5.65;3.33;;;18.00;99.90;;;;;;5007309;28;20263;-80
2022/03/07 10:57:42;;;;;;;6.63;3.60;;;18.90;99.90;;;;;;4997673;28;20917;-79
2022/03/07 11:00:09;;;;;;;8.15;4.28;;;18.80;99.90;;;;;;5002444;28;20205;-81
2022/03/07 11:02:39;;;;;;;7.07;3.22;;;18.60;99.90;;;;;;5001277;28;20201;-79
2022/03/07 11:05:12;;;;;;;4.70;3.40;;;17.20;99.90;;;;;;4990932;28;20197;-77
2022/03/07 11:07:45;;;;;;;3.75;3.10;;;16.90;99.90;;;;;;5001506;28;20205;-79
2022/03/07 11:10:14;;;;;;;4.07;3.63;;;19.10;99.90;;;;;;5001226;28;20201;-79
2022/03/07 11:12:43;;;;;;;4.68;4.10;;;20.20;99.90;;;;;;4992036;28;20302;-79
2022/03/07 11:15:18;;;;;;;4.15;3.33;;;19.00;99.90;;;;;;5001000;28;20212;-82
2022/03/07 11:17:47;;;;;;;3.53;3.17;;;19.10;99.90;;;;;;5000092;28;20220;-80
2022/03/07 11:20:17;;;;;;;3.50;2.90;;;17.40;99.90;;;;;;5007238;28;20262;-78
2022/03/07 11:22:44;;;;;;;4.65;3.50;;;17.10;99.90;;;;;;4999567;28;20693;-78
2022/03/07 11:25:16;;;;;;;6.18;3.25;;;17.50;99.90;;;;;;5017597;28;20251;-79
2022/03/07 11:27:47;;;;;;;5.32;3.15;;;17.00;99.90;;;;;;4985036;28;20212;-81
2022/03/07 11:30:18;;;;;;;6.05;3.35;;;15.90;99.90;;;;;;5002508;28;20291;-78
2022/03/07 11:32:49;;;;;;;4.82;3.40;;;14.40;99.90;;;;;;5019942;28;20213;-79
2022/03/07 11:35:18;;;;;;;4.03;3.20;;;14.00;99.90;;;;;;5001501;28;20197;-79
2022/03/07 11:37:46;;;;;;;5.95;3.25;;;14.50;99.90;;;;;;5002492;28;20255;-80
2022/03/07 11:40:23;;;;;;;4.13;3.30;;;14.80;99.90;;;;;;4988805;28;20216;-79
2022/03/07 11:42:54;;;;;;;6.03;2.93;;;13.70;99.90;;;;;;4989228;28;20196;-78
2022/03/07 11:45:24;;;;;;;4.57;3.08;;;13.70;99.90;;;;;;5001884;28;20182;-79
2022/03/07 11:47:51;;;;;;;5.20;3.30;;;14.20;99.90;;;;;;4992508;28;20212;-81
2022/03/07 11:50:21;;;;;;;3.63;2.83;;;14.40;99.90;;;;;;4973644;28;20205;-79
2022/03/07 11:52:48;;;;;;;4.30;3.10;;;13.30;99.90;;;;;;4992782;28;20204;-80
2022/03/07 11:55:21;;;;;;;5.70;3.13;;;14.70;99.90;;;;;;4998946;28;20246;-81
2022/03/07 11:57:59;;;;;;;4.47;3.40;;;14.40;99.90;;;;;;4993314;28;20225;-79
2022/03/07 12:00:32;;;;;;;4.85;3.42;;;12.90;99.90;;;;;;5004003;28;20262;-80
2022/03/07 12:03:12;;;;;;;5.47;3.50;;;13.70;99.90;;;;;;5007056;28;20201;-80
2022/03/07 12:05:42;;;;;;;4.68;3.17;;;15.30;99.90;;;;;;4992274;28;20193;-82
2022/03/07 12:08:18;;;;;;;3.95;3.10;;;16.60;99.90;;;;;;5006215;28;20220;-80
2022/03/07 12:10:56;;;;;;;3.85;3.30;;;16.50;99.90;;;;;;5001910;28;20229;-83
2022/03/07 12:13:29;;;;;;;3.95;3.10;;;15.40;99.90;;;;;;4985554;28;20717;-80
2022/03/07 12:15:59;;;;;;;4.53;3.40;;;12.70;99.90;;;;;;5002240;28;20189;-80
2022/03/07 12:18:31;;;;;;;4.33;3.13;;;12.40;99.90;;;;;;5006628;28;20235;-79
2022/03/07 12:21:00;;;;;;;6.27;3.50;;;12.70;99.90;;;;;;5005595;28;20224;-84
2022/03/07 12:23:33;;;;;;;5.87;3.40;;;12.00;99.90;;;;;;5009690;28;20679;-82
2022/03/07 12:26:08;;;;;;;4.30;3.20;;;12.20;99.90;;;;;;4992105;28;20272;-79
2022/03/07 12:28:43;;;;;;;4.30;3.40;;;13.10;99.90;;;;;;5006825;28;20887;-83
2022/03/07 12:31:11;;;;;;;3.83;3.10;;;12.00;99.90;;;;;;5020054;28;20251;-83
2022/03/07 12:33:44;;;;;;;3.30;3.00;;;11.30;99.90;;;;;;5004300;28;20305;-80
2022/03/07 12:36:30;;;;;;;3.60;3.10;;;11.40;99.90;;;;;;5002001;28;20193;-85
2022/03/07 12:39:00;;;;;;;3.40;3.10;;;11.90;99.90;;;;;;4995423;28;20218;-86
2022/03/07 12:41:30;;;;;;;7.17;3.53;;;11.70;99.90;;;;;;5006168;28;20228;-82
2022/03/07 12:43:58;;;;;;;5.53;3.20;;;11.20;99.90;;;;;;5006422;28;20200;-85
2022/03/07 12:46:30;;;;;;;4.30;3.40;;;11.20;99.90;;;;;;4993096;28;20361;-81
2022/03/07 12:49:00;;;;;;;4.90;3.23;;;11.30;99.90;;;;;;4991691;28;20224;-82
2022/03/07 12:51:27;;;;;;;3.43;3.13;;;11.30;99.90;;;;;;5004544;28;20223;-83
2022/03/07 12:54:00;;;;;;;4.77;3.30;;;11.50;99.90;;;;;;5011057;28;20206;-83
2022/03/07 12:56:46;;;;;;;4.63;3.17;;;11.80;99.90;;;;;;5017480;28;20224;-81
2022/03/07 12:59:25;;;;;;;3.93;3.03;;;11.90;99.90;;;;;;5003249;28;20227;-81